sensor_id;sensor_type;location;lat;lon;timestamp;P1;durP1;ratioP1;P2;durP2;ratioP2
44578;SDS011;37422;51.402;0.016;2022-08-11T00:00:12;14.95;;;5.90;;
44578;SDS011;37422;51.402;0.016;2022-08-11T00:02:46;10.02;;;5.13;;
44578;SDS011;37422;51.402;0.016;2022-08-11T00:05:19;13.63;;;5.38;;
44578;SDS011;37422;51.402;0.016;2022-08-11T00:07:50;16.00;;;6.43;;
44578;SDS011;37422;51.402;0.016;2022-08-11T00:10:21;49.20;;;28.88;;
44578;SDS011;37422;51.402;0.016;2022-08-11T00:13:00;29.25;;;17.33;;
44578;SDS011;37422;51.402;0.016;2022-08-11T00:15:37;20.60;;;8.55;;
44578;SDS011;37422;51.402;0.016;2022-08-11T00:18:08;14.10;;;6.50;;
44578;SDS011;37422;51.402;0.016;2022-08-11T00:20:45;15.48;;;6.63;;
44578;SDS011;37422;51.402;0.016;2022-08-11T00:23:28;15.82;;;5.88;;
44578;SDS011;37422;51.402;0.016;2022-08-11T00:25:56;15.18;;;5.95;;
44578;SDS011;37422;51.402;0.016;2022-08-11T00:31:07;12.02;;;5.78;;
44578;SDS011;37422;51.402;0.016;2022-08-11T00:33:42;13.57;;;5.68;;
44578;SDS011;37422;51.402;0.016;2022-08-11T00:36:14;15.98;;;5.82;;
44578;SDS011;37422;51.402;0.016;2022-08-11T00:38:50;11.75;;;6.35;;
44578;SDS011;37422;51.402;0.016;2022-08-11T00:41:33;13.57;;;6.38;;
44578;SDS011;37422;51.402;0.016;2022-08-11T00:44:44;12.13;;;4.82;;
44578;SDS011;37422;51.402;0.016;2022-08-11T01:13:47;12.52;;;5.68;;
44578;SDS011;37422;51.402;0.016;2022-08-11T01:19:37;14.10;;;6.28;;
44578;SDS011;37422;51.402;0.016;2022-08-11T01:43:57;14.82;;;6.18;;
44578;SDS011;37422;51.402;0.016;2022-08-11T01:50:34;15.38;;;6.30;;
44578;SDS011;37422;51.402;0.016;2022-08-11T02:05:17;14.90;;;5.65;;
44578;SDS011;37422;51.402;0.016;2022-08-11T02:10:44;14.63;;;5.93;;
44578;SDS011;37422;51.402;0.016;2022-08-11T02:25:37;11.98;;;5.65;;
44578;SDS011;37422;51.402;0.016;2022-08-11T02:31:24;12.30;;;5.45;;
44578;SDS011;37422;51.402;0.016;2022-08-11T02:40:26;12.52;;;5.82;;
44578;SDS011;37422;51.402;0.016;2022-08-11T02:43:21;13.93;;;6.10;;
44578;SDS011;37422;51.402;0.016;2022-08-11T02:46:31;13.27;;;5.65;;
44578;SDS011;37422;51.402;0.016;2022-08-11T02:55:57;29.58;;;7.32;;
44578;SDS011;37422;51.402;0.016;2022-08-11T03:01:40;11.60;;;4.82;;
44578;SDS011;37422;51.402;0.016;2022-08-11T03:04:36;15.88;;;5.47;;
44578;SDS011;37422;51.402;0.016;2022-08-11T03:07:24;15.65;;;6.20;;
44578;SDS011;37422;51.402;0.016;2022-08-11T03:13:03;12.15;;;5.70;;
44578;SDS011;37422;51.402;0.016;2022-08-11T03:19:29;14.95;;;6.15;;
44578;SDS011;37422;51.402;0.016;2022-08-11T03:22:19;11.30;;;5.83;;
44578;SDS011;37422;51.402;0.016;2022-08-11T03:25:05;12.98;;;6.70;;
44578;SDS011;37422;51.402;0.016;2022-08-11T03:27:53;10.88;;;5.65;;
44578;SDS011;37422;51.402;0.016;2022-08-11T03:33:48;15.98;;;6.53;;
44578;SDS011;37422;51.402;0.016;2022-08-11T03:40:05;12.77;;;6.18;;
44578;SDS011;37422;51.402;0.016;2022-08-11T03:43:00;15.05;;;6.35;;
44578;SDS011;37422;51.402;0.016;2022-08-11T04:04:16;13.20;;;5.90;;
44578;SDS011;37422;51.402;0.016;2022-08-11T04:12:27;12.63;;;6.40;;
44578;SDS011;37422;51.402;0.016;2022-08-11T04:15:22;19.08;;;6.40;;
44578;SDS011;37422;51.402;0.016;2022-08-11T04:39:26;13.38;;;7.40;;
44578;SDS011;37422;51.402;0.016;2022-08-11T04:48:47;14.82;;;6.28;;
44578;SDS011;37422;51.402;0.016;2022-08-11T04:54:59;13.50;;;7.07;;
44578;SDS011;37422;51.402;0.016;2022-08-11T05:10:14;14.38;;;8.00;;
44578;SDS011;37422;51.402;0.016;2022-08-11T05:13:09;15.05;;;6.88;;
44578;SDS011;37422;51.402;0.016;2022-08-11T05:15:58;17.45;;;6.88;;
44578;SDS011;37422;51.402;0.016;2022-08-11T05:18:57;14.50;;;6.90;;
44578;SDS011;37422;51.402;0.016;2022-08-11T05:21:55;15.30;;;7.53;;
44578;SDS011;37422;51.402;0.016;2022-08-11T05:25:17;16.33;;;6.55;;
44578;SDS011;37422;51.402;0.016;2022-08-11T05:31:31;13.48;;;7.65;;
44578;SDS011;37422;51.402;0.016;2022-08-11T05:37:46;14.75;;;6.95;;
44578;SDS011;37422;51.402;0.016;2022-08-11T05:40:32;14.73;;;7.30;;
44578;SDS011;37422;51.402;0.016;2022-08-11T05:43:28;18.08;;;7.05;;
44578;SDS011;37422;51.402;0.016;2022-08-11T05:46:39;16.08;;;6.60;;
44578;SDS011;37422;51.402;0.016;2022-08-11T05:49:31;13.32;;;7.45;;
44578;SDS011;37422;51.402;0.016;2022-08-11T05:52:26;15.77;;;6.85;;
44578;SDS011;37422;51.402;0.016;2022-08-11T05:55:23;14.93;;;7.10;;
44578;SDS011;37422;51.402;0.016;2022-08-11T05:58:39;17.55;;;8.45;;
44578;SDS011;37422;51.402;0.016;2022-08-11T06:03:40;23.02;;;8.90;;
44578;SDS011;37422;51.402;0.016;2022-08-11T06:06:30;20.83;;;9.75;;
44578;SDS011;37422;51.402;0.016;2022-08-11T06:08:59;23.20;;;9.90;;
44578;SDS011;37422;51.402;0.016;2022-08-11T06:11:27;25.38;;;10.02;;
44578;SDS011;37422;51.402;0.016;2022-08-11T06:14:11;18.27;;;8.60;;
44578;SDS011;37422;51.402;0.016;2022-08-11T06:16:47;17.20;;;9.75;;
44578;SDS011;37422;51.402;0.016;2022-08-11T06:19:16;20.63;;;9.77;;
44578;SDS011;37422;51.402;0.016;2022-08-11T06:21:49;24.95;;;12.77;;
44578;SDS011;37422;51.402;0.016;2022-08-11T06:24:19;27.60;;;12.55;;
44578;SDS011;37422;51.402;0.016;2022-08-11T06:29:45;28.38;;;13.75;;
44578;SDS011;37422;51.402;0.016;2022-08-11T06:32:24;34.63;;;15.32;;
44578;SDS011;37422;51.402;0.016;2022-08-11T06:44:06;34.70;;;17.00;;
44578;SDS011;37422;51.402;0.016;2022-08-11T06:46:43;34.60;;;16.15;;
44578;SDS011;37422;51.402;0.016;2022-08-11T06:49:14;32.45;;;16.42;;
44578;SDS011;37422;51.402;0.016;2022-08-11T06:52:03;37.63;;;17.25;;
44578;SDS011;37422;51.402;0.016;2022-08-11T06:55:10;34.42;;;15.40;;
44578;SDS011;37422;51.402;0.016;2022-08-11T06:58:28;28.08;;;14.13;;
44578;SDS011;37422;51.402;0.016;2022-08-11T07:04:39;29.30;;;15.20;;
44578;SDS011;37422;51.402;0.016;2022-08-11T07:14:05;27.98;;;13.45;;
44578;SDS011;37422;51.402;0.016;2022-08-11T07:16:52;27.63;;;12.80;;
44578;SDS011;37422;51.402;0.016;2022-08-11T07:19:26;29.70;;;13.48;;
44578;SDS011;37422;51.402;0.016;2022-08-11T07:22:16;27.25;;;14.02;;
44578;SDS011;37422;51.402;0.016;2022-08-11T07:28:01;32.67;;;14.70;;
44578;SDS011;37422;51.402;0.016;2022-08-11T07:30:57;32.67;;;16.35;;
44578;SDS011;37422;51.402;0.016;2022-08-11T07:33:31;32.28;;;15.43;;
44578;SDS011;37422;51.402;0.016;2022-08-11T07:36:45;35.70;;;15.45;;
44578;SDS011;37422;51.402;0.016;2022-08-11T07:39:26;30.35;;;13.85;;
44578;SDS011;37422;51.402;0.016;2022-08-11T07:42:04;29.52;;;14.02;;
44578;SDS011;37422;51.402;0.016;2022-08-11T07:44:39;29.35;;;12.18;;
44578;SDS011;37422;51.402;0.016;2022-08-11T07:47:31;25.10;;;12.55;;
44578;SDS011;37422;51.402;0.016;2022-08-11T07:50:21;22.95;;;10.52;;
44578;SDS011;37422;51.402;0.016;2022-08-11T07:53:08;26.00;;;11.25;;
44578;SDS011;37422;51.402;0.016;2022-08-11T07:55:37;26.98;;;11.52;;
44578;SDS011;37422;51.402;0.016;2022-08-11T07:58:19;24.60;;;10.63;;
44578;SDS011;37422;51.402;0.016;2022-08-11T08:01:21;24.48;;;11.98;;
44578;SDS011;37422;51.402;0.016;2022-08-11T08:04:10;27.35;;;15.18;;
44578;SDS011;37422;51.402;0.016;2022-08-11T08:06:59;29.15;;;12.48;;
44578;SDS011;37422;51.402;0.016;2022-08-11T08:09:49;29.23;;;12.80;;
44578;SDS011;37422;51.402;0.016;2022-08-11T08:12:43;27.75;;;13.00;;
44578;SDS011;37422;51.402;0.016;2022-08-11T08:15:31;26.60;;;12.48;;
44578;SDS011;37422;51.402;0.016;2022-08-11T08:18:17;29.17;;;14.32;;
44578;SDS011;37422;51.402;0.016;2022-08-11T08:21:00;28.30;;;13.23;;
44578;SDS011;37422;51.402;0.016;2022-08-11T08:23:41;23.55;;;12.57;;
44578;SDS011;37422;51.402;0.016;2022-08-11T08:26:14;27.27;;;14.23;;
44578;SDS011;37422;51.402;0.016;2022-08-11T08:29:02;29.27;;;14.27;;
44578;SDS011;37422;51.402;0.016;2022-08-11T08:31:51;28.83;;;13.93;;
44578;SDS011;37422;51.402;0.016;2022-08-11T08:34:21;25.90;;;14.27;;
44578;SDS011;37422;51.402;0.016;2022-08-11T08:36:51;24.98;;;12.57;;
44578;SDS011;37422;51.402;0.016;2022-08-11T08:39:20;25.08;;;12.68;;
44578;SDS011;37422;51.402;0.016;2022-08-11T08:41:54;25.63;;;13.93;;
44578;SDS011;37422;51.402;0.016;2022-08-11T08:44:25;25.48;;;12.95;;
44578;SDS011;37422;51.402;0.016;2022-08-11T08:47:09;27.88;;;14.43;;
44578;SDS011;37422;51.402;0.016;2022-08-11T08:50:15;25.42;;;13.10;;
44578;SDS011;37422;51.402;0.016;2022-08-11T08:52:55;27.05;;;13.82;;
44578;SDS011;37422;51.402;0.016;2022-08-11T08:55:37;23.65;;;13.25;;
44578;SDS011;37422;51.402;0.016;2022-08-11T08:58:14;23.52;;;11.90;;
44578;SDS011;37422;51.402;0.016;2022-08-11T09:00:43;20.95;;;10.73;;
44578;SDS011;37422;51.402;0.016;2022-08-11T09:06:01;20.48;;;11.52;;
44578;SDS011;37422;51.402;0.016;2022-08-11T09:08:29;21.92;;;12.00;;
44578;SDS011;37422;51.402;0.016;2022-08-11T09:11:07;31.25;;;13.40;;
44578;SDS011;37422;51.402;0.016;2022-08-11T09:14:00;22.40;;;10.30;;
44578;SDS011;37422;51.402;0.016;2022-08-11T09:16:35;24.83;;;11.82;;
44578;SDS011;37422;51.402;0.016;2022-08-11T09:19:05;22.40;;;11.05;;
44578;SDS011;37422;51.402;0.016;2022-08-11T09:21:39;21.23;;;11.32;;
44578;SDS011;37422;51.402;0.016;2022-08-11T09:24:16;23.38;;;10.43;;
44578;SDS011;37422;51.402;0.016;2022-08-11T09:27:05;25.88;;;11.38;;
44578;SDS011;37422;51.402;0.016;2022-08-11T09:29:34;25.58;;;11.32;;
44578;SDS011;37422;51.402;0.016;2022-08-11T09:32:05;20.52;;;10.73;;
44578;SDS011;37422;51.402;0.016;2022-08-11T09:34:35;16.33;;;9.10;;
44578;SDS011;37422;51.402;0.016;2022-08-11T09:40:12;22.77;;;10.07;;
44578;SDS011;37422;51.402;0.016;2022-08-11T09:43:02;15.95;;;9.43;;
44578;SDS011;37422;51.402;0.016;2022-08-11T09:45:57;19.70;;;10.05;;
44578;SDS011;37422;51.402;0.016;2022-08-11T09:48:30;27.77;;;10.10;;
44578;SDS011;37422;51.402;0.016;2022-08-11T09:51:02;19.67;;;8.48;;
44578;SDS011;37422;51.402;0.016;2022-08-11T09:53:32;15.03;;;7.10;;
44578;SDS011;37422;51.402;0.016;2022-08-11T09:56:26;12.45;;;5.45;;
44578;SDS011;37422;51.402;0.016;2022-08-11T09:59:16;20.52;;;6.68;;
44578;SDS011;37422;51.402;0.016;2022-08-11T10:01:51;14.48;;;5.70;;
44578;SDS011;37422;51.402;0.016;2022-08-11T10:04:41;14.30;;;6.75;;
44578;SDS011;37422;51.402;0.016;2022-08-11T10:07:14;12.50;;;5.18;;
44578;SDS011;37422;51.402;0.016;2022-08-11T10:09:51;13.05;;;5.18;;
44578;SDS011;37422;51.402;0.016;2022-08-11T10:15:09;16.67;;;6.60;;
44578;SDS011;37422;51.402;0.016;2022-08-11T10:18:10;17.63;;;6.73;;
44578;SDS011;37422;51.402;0.016;2022-08-11T10:21:50;13.18;;;5.40;;
44578;SDS011;37422;51.402;0.016;2022-08-11T10:23:57;17.13;;;5.65;;
44578;SDS011;37422;51.402;0.016;2022-08-11T10:26:46;16.77;;;5.40;;
44578;SDS011;37422;51.402;0.016;2022-08-11T10:32:22;9.27;;;4.05;;
44578;SDS011;37422;51.402;0.016;2022-08-11T10:35:28;14.02;;;5.45;;
44578;SDS011;37422;51.402;0.016;2022-08-11T10:37:58;11.90;;;3.80;;
44578;SDS011;37422;51.402;0.016;2022-08-11T10:40:44;15.20;;;3.97;;
44578;SDS011;37422;51.402;0.016;2022-08-11T10:43:36;10.98;;;4.15;;
44578;SDS011;37422;51.402;0.016;2022-08-11T10:46:26;10.63;;;4.00;;
44578;SDS011;37422;51.402;0.016;2022-08-11T10:49:17;14.98;;;4.30;;
44578;SDS011;37422;51.402;0.016;2022-08-11T10:51:48;12.32;;;3.83;;
44578;SDS011;37422;51.402;0.016;2022-08-11T10:54:35;11.82;;;3.70;;
44578;SDS011;37422;51.402;0.016;2022-08-11T10:57:24;7.65;;;4.35;;
44578;SDS011;37422;51.402;0.016;2022-08-11T11:00:31;8.98;;;3.13;;
44578;SDS011;37422;51.402;0.016;2022-08-11T11:03:19;7.22;;;3.50;;
44578;SDS011;37422;51.402;0.016;2022-08-11T11:05:49;8.80;;;3.55;;
44578;SDS011;37422;51.402;0.016;2022-08-11T11:08:41;9.27;;;3.63;;
44578;SDS011;37422;51.402;0.016;2022-08-11T11:11:23;7.72;;;3.95;;
44578;SDS011;37422;51.402;0.016;2022-08-11T11:14:14;11.35;;;3.38;;
44578;SDS011;37422;51.402;0.016;2022-08-11T11:17:22;11.18;;;3.08;;
44578;SDS011;37422;51.402;0.016;2022-08-11T11:20:24;11.85;;;3.85;;
44578;SDS011;37422;51.402;0.016;2022-08-11T11:23:19;7.47;;;2.90;;
44578;SDS011;37422;51.402;0.016;2022-08-11T11:31:52;9.25;;;2.45;;
44578;SDS011;37422;51.402;0.016;2022-08-11T11:34:30;8.48;;;2.45;;
44578;SDS011;37422;51.402;0.016;2022-08-11T11:37:21;6.43;;;2.75;;
44578;SDS011;37422;51.402;0.016;2022-08-11T11:39:53;10.38;;;2.97;;
44578;SDS011;37422;51.402;0.016;2022-08-11T11:42:23;4.72;;;2.20;;
44578;SDS011;37422;51.402;0.016;2022-08-11T11:44:52;10.60;;;2.97;;
44578;SDS011;37422;51.402;0.016;2022-08-11T11:47:23;9.30;;;2.63;;
44578;SDS011;37422;51.402;0.016;2022-08-11T11:49:52;9.32;;;2.35;;
44578;SDS011;37422;51.402;0.016;2022-08-11T11:52:23;7.60;;;2.42;;
44578;SDS011;37422;51.402;0.016;2022-08-11T11:54:56;6.70;;;2.38;;
44578;SDS011;37422;51.402;0.016;2022-08-11T11:57:24;7.90;;;3.07;;
44578;SDS011;37422;51.402;0.016;2022-08-11T12:00:29;4.35;;;2.00;;
44578;SDS011;37422;51.402;0.016;2022-08-11T12:03:18;9.25;;;2.75;;
44578;SDS011;37422;51.402;0.016;2022-08-11T12:05:47;6.70;;;2.67;;
44578;SDS011;37422;51.402;0.016;2022-08-11T12:08:20;5.35;;;2.45;;
44578;SDS011;37422;51.402;0.016;2022-08-11T12:10:54;5.80;;;2.38;;
44578;SDS011;37422;51.402;0.016;2022-08-11T12:13:44;10.23;;;2.75;;
44578;SDS011;37422;51.402;0.016;2022-08-11T12:16:17;6.57;;;2.65;;
44578;SDS011;37422;51.402;0.016;2022-08-11T12:19:09;8.20;;;2.70;;
44578;SDS011;37422;51.402;0.016;2022-08-11T12:21:43;6.25;;;2.42;;
44578;SDS011;37422;51.402;0.016;2022-08-11T12:24:33;10.93;;;2.83;;
44578;SDS011;37422;51.402;0.016;2022-08-11T12:27:20;8.70;;;2.35;;
44578;SDS011;37422;51.402;0.016;2022-08-11T12:29:53;2.95;;;2.13;;
44578;SDS011;37422;51.402;0.016;2022-08-11T12:32:32;3.47;;;2.20;;
44578;SDS011;37422;51.402;0.016;2022-08-11T12:35:03;5.97;;;2.38;;
44578;SDS011;37422;51.402;0.016;2022-08-11T12:37:39;7.15;;;2.17;;
44578;SDS011;37422;51.402;0.016;2022-08-11T12:40:18;10.68;;;2.38;;
44578;SDS011;37422;51.402;0.016;2022-08-11T12:43:29;4.78;;;2.20;;
44578;SDS011;37422;51.402;0.016;2022-08-11T12:46:33;6.10;;;2.00;;
44578;SDS011;37422;51.402;0.016;2022-08-11T12:49:12;6.27;;;2.07;;
44578;SDS011;37422;51.402;0.016;2022-08-11T12:52:06;5.50;;;2.08;;
44578;SDS011;37422;51.402;0.016;2022-08-11T13:03:04;4.78;;;1.75;;
44578;SDS011;37422;51.402;0.016;2022-08-11T13:05:53;4.47;;;2.00;;
44578;SDS011;37422;51.402;0.016;2022-08-11T13:08:24;6.13;;;1.95;;
44578;SDS011;37422;51.402;0.016;2022-08-11T13:10:56;7.28;;;2.40;;
44578;SDS011;37422;51.402;0.016;2022-08-11T13:16:30;6.93;;;2.15;;
44578;SDS011;37422;51.402;0.016;2022-08-11T13:19:19;6.30;;;2.13;;
44578;SDS011;37422;51.402;0.016;2022-08-11T13:24:18;6.90;;;2.55;;
44578;SDS011;37422;51.402;0.016;2022-08-11T13:26:48;8.45;;;2.40;;
44578;SDS011;37422;51.402;0.016;2022-08-11T13:29:17;5.97;;;2.50;;
44578;SDS011;37422;51.402;0.016;2022-08-11T13:31:47;5.90;;;2.45;;
44578;SDS011;37422;51.402;0.016;2022-08-11T13:34:18;7.45;;;2.05;;
44578;SDS011;37422;51.402;0.016;2022-08-11T13:36:48;9.02;;;2.83;;
44578;SDS011;37422;51.402;0.016;2022-08-11T13:39:23;8.70;;;2.65;;
44578;SDS011;37422;51.402;0.016;2022-08-11T13:41:53;8.95;;;3.33;;
44578;SDS011;37422;51.402;0.016;2022-08-11T13:44:27;12.05;;;3.45;;
44578;SDS011;37422;51.402;0.016;2022-08-11T13:47:01;2.78;;;1.85;;
44578;SDS011;37422;51.402;0.016;2022-08-11T13:49:31;6.43;;;2.38;;
44578;SDS011;37422;51.402;0.016;2022-08-11T13:52:09;6.60;;;2.35;;
44578;SDS011;37422;51.402;0.016;2022-08-11T13:54:40;7.13;;;2.05;;
44578;SDS011;37422;51.402;0.016;2022-08-11T13:57:10;5.13;;;2.28;;
44578;SDS011;37422;51.402;0.016;2022-08-11T14:00:01;10.60;;;2.38;;
44578;SDS011;37422;51.402;0.016;2022-08-11T14:02:53;5.57;;;2.60;;
44578;SDS011;37422;51.402;0.016;2022-08-11T14:05:27;6.72;;;3.00;;
44578;SDS011;37422;51.402;0.016;2022-08-11T14:08:09;4.85;;;2.13;;
44578;SDS011;37422;51.402;0.016;2022-08-11T14:11:01;3.67;;;2.13;;
44578;SDS011;37422;51.402;0.016;2022-08-11T14:14:15;6.35;;;2.20;;
44578;SDS011;37422;51.402;0.016;2022-08-11T14:16:47;7.68;;;2.53;;
44578;SDS011;37422;51.402;0.016;2022-08-11T14:19:20;4.38;;;2.15;;
44578;SDS011;37422;51.402;0.016;2022-08-11T14:21:50;3.65;;;2.20;;
44578;SDS011;37422;51.402;0.016;2022-08-11T14:24:36;4.97;;;1.90;;
44578;SDS011;37422;51.402;0.016;2022-08-11T14:27:07;7.05;;;2.25;;
44578;SDS011;37422;51.402;0.016;2022-08-11T14:29:58;6.25;;;2.33;;
44578;SDS011;37422;51.402;0.016;2022-08-11T14:32:30;5.35;;;2.35;;
44578;SDS011;37422;51.402;0.016;2022-08-11T14:34:59;7.97;;;2.65;;
44578;SDS011;37422;51.402;0.016;2022-08-11T14:37:29;8.13;;;2.67;;
44578;SDS011;37422;51.402;0.016;2022-08-11T14:39:57;8.50;;;3.13;;
44578;SDS011;37422;51.402;0.016;2022-08-11T14:42:59;7.35;;;3.65;;
44578;SDS011;37422;51.402;0.016;2022-08-11T14:46:10;6.15;;;3.28;;
44578;SDS011;37422;51.402;0.016;2022-08-11T14:48:59;6.30;;;3.70;;
44578;SDS011;37422;51.402;0.016;2022-08-11T14:51:27;6.85;;;3.20;;
44578;SDS011;37422;51.402;0.016;2022-08-11T14:53:55;7.93;;;2.90;;
44578;SDS011;37422;51.402;0.016;2022-08-11T14:56:44;6.35;;;2.65;;
44578;SDS011;37422;51.402;0.016;2022-08-11T14:59:12;6.32;;;2.97;;
44578;SDS011;37422;51.402;0.016;2022-08-11T15:01:40;6.03;;;2.42;;
44578;SDS011;37422;51.402;0.016;2022-08-11T15:04:28;3.50;;;2.67;;
44578;SDS011;37422;51.402;0.016;2022-08-11T15:07:06;5.70;;;2.38;;
44578;SDS011;37422;51.402;0.016;2022-08-11T15:09:43;9.30;;;2.40;;
44578;SDS011;37422;51.402;0.016;2022-08-11T15:12:32;8.93;;;2.28;;
44578;SDS011;37422;51.402;0.016;2022-08-11T15:15:05;3.22;;;2.38;;
44578;SDS011;37422;51.402;0.016;2022-08-11T15:17:53;6.80;;;2.50;;
44578;SDS011;37422;51.402;0.016;2022-08-11T15:20:26;5.75;;;2.28;;
44578;SDS011;37422;51.402;0.016;2022-08-11T15:23:19;10.25;;;2.13;;
44578;SDS011;37422;51.402;0.016;2022-08-11T15:26:12;4.43;;;2.00;;
44578;SDS011;37422;51.402;0.016;2022-08-11T15:28:48;4.22;;;2.35;;
44578;SDS011;37422;51.402;0.016;2022-08-11T15:31:35;3.88;;;2.05;;
44578;SDS011;37422;51.402;0.016;2022-08-11T15:34:26;4.80;;;2.30;;
44578;SDS011;37422;51.402;0.016;2022-08-11T15:37:14;5.28;;;2.10;;
44578;SDS011;37422;51.402;0.016;2022-08-11T15:40:05;8.90;;;2.80;;
44578;SDS011;37422;51.402;0.016;2022-08-11T15:45:56;3.83;;;2.28;;
44578;SDS011;37422;51.402;0.016;2022-08-11T15:48:34;6.60;;;2.63;;
44578;SDS011;37422;51.402;0.016;2022-08-11T15:54:04;6.13;;;2.20;;
44578;SDS011;37422;51.402;0.016;2022-08-11T15:56:40;6.80;;;3.00;;
44578;SDS011;37422;51.402;0.016;2022-08-11T15:59:19;5.00;;;2.08;;
44578;SDS011;37422;51.402;0.016;2022-08-11T16:02:11;6.30;;;2.53;;
44578;SDS011;37422;51.402;0.016;2022-08-11T16:05:05;8.05;;;2.92;;
44578;SDS011;37422;51.402;0.016;2022-08-11T16:07:35;4.40;;;2.40;;
44578;SDS011;37422;51.402;0.016;2022-08-11T16:10:13;5.00;;;2.40;;
44578;SDS011;37422;51.402;0.016;2022-08-11T16:12:49;10.20;;;3.10;;
44578;SDS011;37422;51.402;0.016;2022-08-11T16:15:34;4.68;;;2.78;;
44578;SDS011;37422;51.402;0.016;2022-08-11T16:18:25;7.95;;;2.70;;
44578;SDS011;37422;51.402;0.016;2022-08-11T16:21:16;8.30;;;2.50;;
44578;SDS011;37422;51.402;0.016;2022-08-11T16:24:00;10.65;;;2.95;;
44578;SDS011;37422;51.402;0.016;2022-08-11T16:26:32;6.68;;;3.22;;
44578;SDS011;37422;51.402;0.016;2022-08-11T16:29:25;12.48;;;3.60;;
44578;SDS011;37422;51.402;0.016;2022-08-11T16:31:55;6.03;;;2.63;;
44578;SDS011;37422;51.402;0.016;2022-08-11T16:34:47;9.13;;;2.90;;
44578;SDS011;37422;51.402;0.016;2022-08-11T16:37:40;5.40;;;2.70;;
44578;SDS011;37422;51.402;0.016;2022-08-11T16:40:30;6.15;;;3.03;;
44578;SDS011;37422;51.402;0.016;2022-08-11T16:43:00;7.45;;;2.78;;
44578;SDS011;37422;51.402;0.016;2022-08-11T16:46:04;6.45;;;3.05;;
44578;SDS011;37422;51.402;0.016;2022-08-11T16:48:57;6.05;;;3.00;;
44578;SDS011;37422;51.402;0.016;2022-08-11T16:51:29;6.03;;;2.33;;
44578;SDS011;37422;51.402;0.016;2022-08-11T16:54:00;6.32;;;2.80;;
44578;SDS011;37422;51.402;0.016;2022-08-11T16:56:37;3.53;;;2.50;;
44578;SDS011;37422;51.402;0.016;2022-08-11T16:59:35;7.78;;;2.28;;
44578;SDS011;37422;51.402;0.016;2022-08-11T17:02:06;3.95;;;2.35;;
44578;SDS011;37422;51.402;0.016;2022-08-11T17:04:57;9.27;;;3.13;;
44578;SDS011;37422;51.402;0.016;2022-08-11T17:08:20;9.60;;;3.03;;
44578;SDS011;37422;51.402;0.016;2022-08-11T17:11:33;5.38;;;2.83;;
44578;SDS011;37422;51.402;0.016;2022-08-11T17:14:27;5.45;;;3.03;;
44578;SDS011;37422;51.402;0.016;2022-08-11T17:17:03;8.20;;;3.25;;
44578;SDS011;37422;51.402;0.016;2022-08-11T17:19:35;4.20;;;2.40;;
44578;SDS011;37422;51.402;0.016;2022-08-11T17:22:26;5.85;;;2.95;;
44578;SDS011;37422;51.402;0.016;2022-08-11T17:25:14;8.15;;;2.83;;
44578;SDS011;37422;51.402;0.016;2022-08-11T17:27:43;5.07;;;3.17;;
44578;SDS011;37422;51.402;0.016;2022-08-11T17:30:13;7.32;;;3.15;;
44578;SDS011;37422;51.402;0.016;2022-08-11T17:32:44;5.43;;;2.72;;
44578;SDS011;37422;51.402;0.016;2022-08-11T17:35:38;6.70;;;2.75;;
44578;SDS011;37422;51.402;0.016;2022-08-11T17:38:17;7.50;;;3.85;;
44578;SDS011;37422;51.402;0.016;2022-08-11T17:40:54;10.15;;;4.90;;
44578;SDS011;37422;51.402;0.016;2022-08-11T17:43:49;10.73;;;4.22;;
44578;SDS011;37422;51.402;0.016;2022-08-11T17:46:39;7.30;;;3.50;;
44578;SDS011;37422;51.402;0.016;2022-08-11T17:49:32;6.78;;;3.40;;
44578;SDS011;37422;51.402;0.016;2022-08-11T17:52:09;8.98;;;3.10;;
44578;SDS011;37422;51.402;0.016;2022-08-11T17:55:04;7.05;;;3.33;;
44578;SDS011;37422;51.402;0.016;2022-08-11T17:58:19;5.70;;;3.05;;
44578;SDS011;37422;51.402;0.016;2022-08-11T18:01:08;8.23;;;3.35;;
44578;SDS011;37422;51.402;0.016;2022-08-11T18:03:39;7.10;;;2.88;;
44578;SDS011;37422;51.402;0.016;2022-08-11T18:06:25;8.75;;;2.88;;
44578;SDS011;37422;51.402;0.016;2022-08-11T18:09:02;5.07;;;2.47;;
44578;SDS011;37422;51.402;0.016;2022-08-11T18:11:51;6.38;;;2.67;;
44578;SDS011;37422;51.402;0.016;2022-08-11T18:14:42;7.23;;;2.87;;
44578;SDS011;37422;51.402;0.016;2022-08-11T18:17:31;8.45;;;3.00;;
44578;SDS011;37422;51.402;0.016;2022-08-11T18:20:19;8.38;;;3.17;;
44578;SDS011;37422;51.402;0.016;2022-08-11T18:23:08;12.85;;;3.92;;
44578;SDS011;37422;51.402;0.016;2022-08-11T18:26:14;10.23;;;4.25;;
44578;SDS011;37422;51.402;0.016;2022-08-11T18:29:04;10.77;;;3.60;;
44578;SDS011;37422;51.402;0.016;2022-08-11T18:31:52;11.60;;;3.15;;
44578;SDS011;37422;51.402;0.016;2022-08-11T18:34:47;5.13;;;2.90;;
44578;SDS011;37422;51.402;0.016;2022-08-11T18:37:37;6.55;;;3.10;;
44578;SDS011;37422;51.402;0.016;2022-08-11T18:40:31;6.65;;;3.85;;
44578;SDS011;37422;51.402;0.016;2022-08-11T18:43:25;9.82;;;5.22;;
44578;SDS011;37422;51.402;0.016;2022-08-11T18:46:14;9.93;;;4.40;;
44578;SDS011;37422;51.402;0.016;2022-08-11T18:49:05;7.97;;;3.72;;
44578;SDS011;37422;51.402;0.016;2022-08-11T18:52:19;6.47;;;3.22;;
44578;SDS011;37422;51.402;0.016;2022-08-11T18:55:10;4.93;;;2.92;;
44578;SDS011;37422;51.402;0.016;2022-08-11T18:58:03;6.88;;;3.50;;
44578;SDS011;37422;51.402;0.016;2022-08-11T19:00:56;7.80;;;2.88;;
44578;SDS011;37422;51.402;0.016;2022-08-11T19:03:50;8.55;;;2.95;;
44578;SDS011;37422;51.402;0.016;2022-08-11T19:06:45;8.65;;;2.85;;
44578;SDS011;37422;51.402;0.016;2022-08-11T19:09:35;9.13;;;3.30;;
44578;SDS011;37422;51.402;0.016;2022-08-11T19:12:31;9.00;;;3.30;;
44578;SDS011;37422;51.402;0.016;2022-08-11T19:15:25;6.47;;;3.03;;
44578;SDS011;37422;51.402;0.016;2022-08-11T19:18:15;6.28;;;2.53;;
44578;SDS011;37422;51.402;0.016;2022-08-11T19:23:53;9.02;;;2.92;;
44578;SDS011;37422;51.402;0.016;2022-08-11T19:26:43;7.93;;;3.35;;
44578;SDS011;37422;51.402;0.016;2022-08-11T19:29:31;10.02;;;5.20;;
44578;SDS011;37422;51.402;0.016;2022-08-11T19:32:39;9.95;;;5.32;;
44578;SDS011;37422;51.402;0.016;2022-08-11T19:35:30;9.95;;;6.00;;
44578;SDS011;37422;51.402;0.016;2022-08-11T19:38:23;13.63;;;6.20;;
44578;SDS011;37422;51.402;0.016;2022-08-11T19:41:10;16.63;;;4.43;;
44578;SDS011;37422;51.402;0.016;2022-08-11T19:44:19;14.32;;;3.85;;
44578;SDS011;37422;51.402;0.016;2022-08-11T19:47:07;8.60;;;3.83;;
44578;SDS011;37422;51.402;0.016;2022-08-11T19:50:01;6.53;;;3.30;;
44578;SDS011;37422;51.402;0.016;2022-08-11T19:52:50;7.57;;;3.47;;
44578;SDS011;37422;51.402;0.016;2022-08-11T19:55:43;7.85;;;3.20;;
44578;SDS011;37422;51.402;0.016;2022-08-11T19:58:36;6.15;;;3.60;;
44578;SDS011;37422;51.402;0.016;2022-08-11T20:01:24;9.43;;;3.85;;
44578;SDS011;37422;51.402;0.016;2022-08-11T20:04:31;8.32;;;3.70;;
44578;SDS011;37422;51.402;0.016;2022-08-11T20:07:19;10.88;;;4.28;;
44578;SDS011;37422;51.402;0.016;2022-08-11T20:10:11;10.25;;;5.47;;
44578;SDS011;37422;51.402;0.016;2022-08-11T20:13:08;14.75;;;6.55;;
44578;SDS011;37422;51.402;0.016;2022-08-11T20:15:58;17.55;;;6.22;;
44578;SDS011;37422;51.402;0.016;2022-08-11T20:18:51;12.65;;;4.95;;
44578;SDS011;37422;51.402;0.016;2022-08-11T20:21:46;14.57;;;4.78;;
44578;SDS011;37422;51.402;0.016;2022-08-11T20:24:37;11.93;;;5.25;;
44578;SDS011;37422;51.402;0.016;2022-08-11T20:27:25;15.40;;;7.00;;
44578;SDS011;37422;51.402;0.016;2022-08-11T20:30:11;12.77;;;7.65;;
44578;SDS011;37422;51.402;0.016;2022-08-11T20:33:03;13.57;;;6.90;;
44578;SDS011;37422;51.402;0.016;2022-08-11T20:35:50;11.05;;;5.22;;
44578;SDS011;37422;51.402;0.016;2022-08-11T20:38:37;10.70;;;5.88;;